createdAt,value
2018-12-10T00:04:55.429Z,66.2
2018-12-10T00:09:52.708Z,66.2
2018-12-10T00:14:50.050Z,66
2018-12-10T00:19:48.158Z,66
2018-12-10T00:24:45.146Z,66
2018-12-10T00:29:42.499Z,66
2018-12-10T00:34:39.337Z,66.1
2018-12-10T00:39:36.640Z,65.7
2018-12-10T00:44:33.878Z,65.8
2018-12-10T00:49:31.432Z,65.7
2018-12-10T00:54:28.691Z,65.4
2018-12-10T00:59:26.516Z,65.3
2018-12-10T01:04:24.027Z,65.3
2018-12-10T01:09:21.558Z,65.9
2018-12-10T01:14:18.910Z,65.6
2018-12-10T01:19:16.182Z,65.9
2018-12-10T01:24:13.661Z,65.3
2018-12-10T01:29:10.872Z,65.3
2018-12-10T01:34:08.229Z,65.6
2018-12-10T01:39:05.634Z,66
2018-12-10T01:44:03.228Z,65.5
2018-12-10T01:49:00.395Z,65.5
2018-12-10T01:53:57.802Z,65.6
2018-12-10T01:58:54.812Z,65.4
2018-12-10T02:03:52.133Z,65.4
2018-12-10T02:08:49.664Z,65.6
2018-12-10T02:13:47.264Z,65.6
2018-12-10T02:18:44.875Z,65.6
2018-12-10T02:23:42.277Z,65.8
2018-12-10T02:28:39.649Z,65.6
2018-12-10T02:33:37.029Z,65.2
2018-12-10T02:38:34.916Z,65.1
2018-12-10T02:43:32.159Z,65.4
2018-12-10T02:48:29.307Z,65.3
2018-12-10T02:53:27.091Z,65.1
2018-12-10T02:58:24.756Z,64.9
2018-12-10T03:03:22.233Z,65.3
2018-12-10T03:08:19.637Z,65.4
2018-12-10T03:13:16.711Z,65.2
2018-12-10T03:18:13.712Z,65.3
2018-12-10T03:23:11.596Z,64.8
2018-12-10T03:28:09.008Z,65.5
2018-12-10T03:33:06.438Z,65.7
2018-12-10T03:38:03.575Z,65.5
2018-12-10T03:43:01.158Z,65.9
2018-12-10T03:47:58.558Z,66.1
2018-12-10T03:52:56.016Z,66
2018-12-10T03:57:53.724Z,66
2018-12-10T04:02:51.238Z,66.8
2018-12-10T04:07:48.379Z,66.9
2018-12-10T04:12:45.668Z,66.4
2018-12-10T04:17:43.175Z,66.9
2018-12-10T04:22:40.914Z,66.8
2018-12-10T04:27:38.104Z,66.7
2018-12-10T04:32:35.460Z,67
2018-12-10T04:37:32.840Z,66.9
2018-12-10T04:42:30.032Z,66.8
2018-12-10T04:47:27.311Z,66.8
2018-12-10T04:52:25.078Z,67.2
2018-12-10T04:57:22.302Z,67.2
2018-12-10T05:02:20.134Z,67.5
2018-12-10T05:07:16.161Z,67.5
2018-12-10T05:12:13.670Z,67.5
2018-12-10T05:17:10.741Z,67.5
2018-12-10T05:22:08.156Z,68
2018-12-10T05:27:05.695Z,67.5
2018-12-10T05:32:03.058Z,67.8
2018-12-10T05:37:00.123Z,67.3
2018-12-10T05:41:57.511Z,67.3
2018-12-10T05:46:54.855Z,67.6
2018-12-10T05:51:52.458Z,68
2018-12-10T05:56:49.888Z,67.6
2018-12-10T06:01:47.626Z,67.5
2018-12-10T06:06:47.514Z,67.3
2018-12-10T06:11:46.117Z,67.5
2018-12-10T06:16:45.326Z,67.3
2018-12-10T06:21:42.021Z,67.4
2018-12-10T06:26:39.445Z,67.5
2018-12-10T06:31:36.554Z,67.3
2018-12-10T06:36:33.824Z,67.3
2018-12-10T06:41:30.930Z,67.1
2018-12-10T06:46:28.248Z,67.4
2018-12-10T06:51:25.905Z,67.1
2018-12-10T06:56:23.806Z,67.4
2018-12-10T07:01:21.375Z,67.4
2018-12-10T07:06:18.224Z,67.1
2018-12-10T07:11:15.592Z,67
2018-12-10T07:16:12.760Z,67.3
2018-12-10T07:21:10.037Z,67.2
2018-12-10T07:26:12.793Z,67.7
2018-12-10T07:31:08.114Z,67.4
2018-12-10T07:36:05.330Z,67.3
2018-12-10T07:41:03.102Z,67.3
2018-12-10T07:46:00.459Z,68.1
2018-12-10T07:50:57.680Z,68.9
2018-12-10T07:55:55.016Z,69.1
2018-12-10T08:00:52.342Z,68.9
2018-12-10T08:05:49.695Z,69.7
2018-12-10T08:10:46.989Z,69
2018-12-10T08:15:44.219Z,68.7
2018-12-10T08:20:41.554Z,68.6
2018-12-10T08:25:39.093Z,68.6
2018-12-10T08:30:36.553Z,68.5
2018-12-10T08:35:40.778Z,69
2018-12-10T08:40:31.476Z,68.8
2018-12-10T08:45:28.824Z,69
2018-12-10T08:50:26.814Z,68.8
2018-12-10T08:55:24.324Z,68.7
2018-12-10T09:00:26.000Z,68.6
2018-12-10T09:05:22.348Z,69.3
2018-12-10T09:10:19.721Z,69.2
2018-12-10T09:15:17.090Z,69.1
2018-12-10T09:20:16.169Z,69.2
2018-12-10T09:25:14.445Z,69.7
2018-12-10T09:30:12.231Z,69.6
2018-12-10T09:35:11.273Z,69.2
2018-12-10T09:40:07.468Z,69.8
2018-12-10T09:45:04.813Z,69.7
2018-12-10T09:50:02.058Z,69.6
2018-12-10T09:54:59.403Z,69.8
2018-12-10T09:59:56.708Z,69.5
2018-12-10T10:04:54.193Z,70.1
2018-12-10T10:09:51.824Z,70.5
2018-12-10T10:14:49.754Z,70.4
2018-12-10T10:19:46.837Z,70.3
2018-12-10T10:24:44.358Z,70.1
2018-12-10T10:29:42.275Z,70.4
2018-12-10T10:34:39.415Z,70.1
2018-12-10T10:39:39.963Z,70.3
2018-12-10T10:44:36.278Z,70
2018-12-10T10:49:33.991Z,70.1
2018-12-10T10:54:31.270Z,70.4
2018-12-10T10:59:29.538Z,70.6
2018-12-10T11:04:26.685Z,71
2018-12-10T11:09:26.042Z,71
2018-12-10T11:14:22.279Z,70.6
2018-12-10T11:19:19.949Z,70.8
2018-12-10T11:24:17.250Z,71.4
2018-12-10T11:29:15.298Z,71.3
2018-12-10T11:34:12.636Z,71.3
2018-12-10T11:39:09.639Z,71.2
2018-12-10T11:44:06.834Z,71.2
2018-12-10T11:49:04.644Z,71.3
2018-12-10T11:54:06.852Z,71.6
2018-12-10T11:59:03.218Z,71.5
2018-12-10T12:04:01.318Z,71.4
2018-12-10T12:08:58.786Z,71.4
2018-12-10T12:13:56.283Z,72.5
2018-12-10T12:18:53.814Z,71.9
2018-12-10T12:23:51.156Z,72.1
2018-12-10T12:28:48.568Z,71.9
2018-12-10T12:33:44.303Z,71.9
2018-12-10T12:38:42.601Z,72
2018-12-10T12:43:39.638Z,72.5
2018-12-10T12:48:36.728Z,72.1
2018-12-10T12:53:34.958Z,72.2
2018-12-10T12:58:32.887Z,72
2018-12-10T13:03:30.284Z,71.5
2018-12-10T13:08:31.516Z,71.9
2018-12-10T13:13:27.843Z,71.6
2018-12-10T13:18:25.577Z,71.6
2018-12-10T13:23:22.331Z,71.7
2018-12-10T13:28:19.491Z,72.2
2018-12-10T13:33:22.196Z,72.2
2018-12-10T13:38:19.691Z,72.3
2018-12-10T13:43:16.791Z,72.7
2018-12-10T13:48:14.226Z,72.7
2018-12-10T13:53:12.140Z,72.7
2018-12-10T13:58:10.037Z,72.6
2018-12-10T14:03:07.079Z,72.8
2018-12-10T14:08:04.565Z,72.6
2018-12-10T14:13:01.738Z,72.3
2018-12-10T14:17:59.190Z,72.2
2018-12-10T14:22:54.129Z,72.1
2018-12-10T14:27:50.914Z,72.2
2018-12-10T14:32:48.508Z,72.5
2018-12-10T14:37:45.958Z,72.4
2018-12-10T14:42:44.020Z,72.6
2018-12-10T14:47:41.456Z,72.4
2018-12-10T14:52:38.984Z,72.9
2018-12-10T14:57:36.417Z,71.6
2018-12-10T15:02:34.058Z,71.7
2018-12-10T15:07:33.044Z,71.4
2018-12-10T15:12:30.449Z,70.7
2018-12-10T15:17:34.450Z,69.4
2018-12-10T15:22:30.408Z,70
2018-12-10T15:27:27.783Z,69.5
2018-12-10T15:32:25.187Z,69.3
2018-12-10T15:37:22.667Z,68.5
2018-12-10T15:42:20.459Z,68.7
2018-12-10T15:47:18.414Z,68.1
2018-12-10T15:52:16.181Z,68.2
2018-12-10T15:57:13.457Z,67.7
2018-12-10T16:02:10.600Z,68
2018-12-10T16:07:08.090Z,67.8
2018-12-10T16:12:06.061Z,67.7
2018-12-10T16:17:03.506Z,67.8
2018-12-10T16:22:00.812Z,67.7
2018-12-10T16:26:58.144Z,67.7
2018-12-10T16:31:55.882Z,67.3
2018-12-10T16:36:53.255Z,66.9
2018-12-10T16:41:50.594Z,66.6
2018-12-10T16:46:49.893Z,66.2
2018-12-10T16:51:46.758Z,65.8
2018-12-10T16:56:44.137Z,65.9
2018-12-10T17:01:41.230Z,65.8
2018-12-10T17:06:39.233Z,65.7
2018-12-10T17:11:37.036Z,65.4
2018-12-10T17:16:34.342Z,64.9
2018-12-10T17:21:32.494Z,65
2018-12-10T17:26:30.043Z,63.7
2018-12-10T17:31:27.487Z,63.2
2018-12-10T17:36:24.705Z,63
2018-12-10T17:41:22.098Z,62.1
2018-12-10T17:46:19.398Z,61.9
2018-12-10T17:51:16.584Z,61.5
2018-12-10T17:56:14.162Z,61.9
2018-12-10T18:01:11.703Z,61.7
2018-12-10T18:06:08.952Z,61.6
2018-12-10T18:11:06.424Z,61.8
2018-12-10T18:16:03.644Z,62.4
2018-12-10T18:21:01.317Z,62.2
2018-12-10T18:25:58.622Z,61.9
2018-12-10T18:30:55.979Z,61.6
2018-12-10T18:35:53.316Z,61.6
2018-12-10T18:40:50.853Z,61.6
2018-12-10T18:45:47.705Z,61.8
2018-12-10T18:50:45.214Z,61.6
2018-12-10T18:55:42.591Z,61.6
2018-12-10T19:00:39.837Z,61.6
2018-12-10T19:05:37.321Z,61.9
2018-12-10T19:10:34.782Z,61.3
2018-12-10T19:15:31.914Z,61.3
2018-12-10T19:20:29.338Z,61
2018-12-10T19:25:26.569Z,60.5
2018-12-10T19:30:24.206Z,60.1
2018-12-10T19:35:21.579Z,59.9
2018-12-10T19:40:19.260Z,60
2018-12-10T19:45:16.472Z,59.8
2018-12-10T19:50:13.997Z,59.8
2018-12-10T19:55:11.228Z,60
2018-12-10T20:00:08.947Z,60.3
2018-12-10T20:05:06.316Z,60.5
2018-12-10T20:10:04.002Z,60
2018-12-10T20:15:00.863Z,60.3
2018-12-10T20:19:58.063Z,59.9
2018-12-10T20:24:55.533Z,60.1
2018-12-10T20:29:53.018Z,59.5
2018-12-10T20:34:50.251Z,59.8
2018-12-10T20:39:47.646Z,59.5
2018-12-10T20:44:44.962Z,59.2
2018-12-10T20:49:42.406Z,58.8
2018-12-10T20:54:40.208Z,59.1
2018-12-10T20:59:37.800Z,59
2018-12-10T21:04:35.178Z,58.7
2018-12-10T21:09:32.677Z,58.5
2018-12-10T21:14:30.054Z,58.5
2018-12-10T21:19:27.086Z,58.5
2018-12-10T21:24:24.682Z,57.4
2018-12-10T21:29:22.129Z,57.2
2018-12-10T21:34:19.568Z,56.8
2018-12-10T21:39:17.196Z,56.9
2018-12-10T21:44:14.479Z,57
2018-12-10T21:49:11.994Z,56.8
2018-12-10T21:54:09.233Z,56.6
2018-12-10T21:59:06.869Z,56.4
2018-12-10T22:04:04.129Z,56.6
2018-12-10T22:09:01.698Z,56.2
2018-12-10T22:13:58.764Z,56.1
2018-12-10T22:18:56.230Z,55.8
2018-12-10T22:23:53.480Z,55.4
2018-12-10T22:28:51.131Z,55.2
2018-12-10T22:33:48.671Z,55.2
2018-12-10T22:38:46.155Z,55
2018-12-10T22:43:43.519Z,55.2
2018-12-10T22:48:41.173Z,55.5
2018-12-10T22:53:38.778Z,54.8
2018-12-10T22:58:36.119Z,54.8
2018-12-10T23:03:33.463Z,54.1
2018-12-10T23:08:30.961Z,54.4
2018-12-10T23:13:28.301Z,54.3
2018-12-10T23:18:25.747Z,54.4
2018-12-10T23:23:23.518Z,53.8
2018-12-10T23:28:20.892Z,54.2
2018-12-10T23:33:18.355Z,53.8
2018-12-10T23:38:15.653Z,54
2018-12-10T23:43:13.251Z,54.2
2018-12-10T23:48:10.842Z,54
2018-12-10T23:53:08.181Z,54
2018-12-10T23:58:05.892Z,54.2
